Time;durP1;ratioP1;P1;durP2;ratioP2;P2;SDS_P1;SDS_P2;PMS_P1;PMS_P2;Temp;Humidity;BMP_temperature;BMP_pressure;BME280_temperature;BME280_humidity;BME280_pressure;Samples;Min_cycle;Max_cycle;Signal;HPM_P1;HPM_P2
2022/09/10 01:45:56;;;;;;;;;;;19.20;60.70;;;;;;6172298;23;20639;-70
2022/09/10 01:48:29;;;;;;;;;;;19.20;61.20;;;;;;6149632;23;19916;-71
2022/09/10 01:51:07;;;;;;;;;;;19.30;60.20;;;;;;6153930;23;19904;-76
2022/09/10 01:53:50;;;;;;;;;;;19.40;59.50;;;;;;6178840;23;19904;-73
2022/09/10 01:56:33;;;;;;;;;;;19.40;59.40;;;;;;6150944;23;19939;-70
2022/09/10 01:59:03;;;;;;;;;;;19.50;58.10;;;;;;6178480;23;19919;-70
2022/09/10 02:01:30;;;;;;;;;;;19.60;57.70;;;;;;6152163;23;19920;-70
2022/09/10 02:03:58;;;;;;;;;;;19.70;58.10;;;;;;6176735;23;20334;-70
2022/09/10 02:06:28;;;;;;;;;;;19.60;58.20;;;;;;6152895;23;20330;-69
2022/09/10 02:08:55;;;;;;;;;;;19.50;58.80;;;;;;6154580;23;19959;-69
2022/09/10 02:11:22;;;;;;;;;;;19.50;59.50;;;;;;6154542;23;19908;-69
2022/09/10 02:13:49;;;;;;;;;;;19.50;59.00;;;;;;6180748;23;20350;-69
2022/09/10 02:16:41;;;;;;;;;;;19.60;58.20;;;;;;6129032;23;20316;-70
2022/09/10 02:19:08;;;;;;;;;;;19.60;57.00;;;;;;6124599;23;19916;-70
2022/09/10 02:21:34;;;;;;;;;;;19.70;56.30;;;;;;6180942;23;19991;-69
2022/09/10 02:24:04;;;;;;;;;;;19.70;56.10;;;;;;6154190;23;19987;-69
2022/09/10 02:26:34;;;;;;;;;;;19.80;55.90;;;;;;6130445;23;19909;-69
2022/09/10 02:29:01;;;;;;;;;;;19.80;56.60;;;;;;6153739;23;20007;-69
2022/09/10 02:31:27;;;;;;;;;;;19.70;56.70;;;;;;6181145;23;19908;-70
2022/09/10 02:33:54;;;;;;;;;;;19.80;56.60;;;;;;6180032;23;19904;-70
2022/09/10 02:36:24;;;;;;;;;;;19.70;55.90;;;;;;6180499;23;19910;-70
2022/09/10 02:38:52;;;;;;;;;;;19.70;54.90;;;;;;6180042;23;20242;-70
2022/09/10 02:41:21;;;;;;;;;;;19.80;55.00;;;;;;6180605;23;19911;-70
2022/09/10 02:43:48;;;;;;;;;;;19.80;55.40;;;;;;6179207;23;20159;-69
2022/09/10 02:46:15;;;;;;;;;;;19.90;53.70;;;;;;6180094;23;19978;-70
2022/09/10 02:48:41;;;;;;;;;;;20.10;54.30;;;;;;6178972;23;19962;-70
2022/09/10 02:51:08;;;;;;;;;;;20.10;54.40;;;;;;6180934;23;20358;-69
2022/09/10 02:53:34;;;;;;;;;;;20.20;53.10;;;;;;6181182;23;19987;-69
2022/09/10 02:56:02;;;;;;;;;;;20.20;53.00;;;;;;6181150;23;20287;-69
2022/09/10 02:58:32;;;;;;;;;;;20.30;54.00;;;;;;6155168;23;20608;-70
2022/09/10 03:01:09;;;;;;;;;;;20.40;52.80;;;;;;6181395;23;19915;-69
2022/09/10 03:03:35;;;;;;;;;;;20.40;52.10;;;;;;6181155;23;19916;-69
2022/09/10 03:06:03;;;;;;;;;;;20.40;52.40;;;;;;6181025;23;20282;-69
2022/09/10 03:08:29;;;;;;;;;;;20.40;51.30;;;;;;6180907;23;19915;-70
2022/09/10 03:10:58;;;;;;;;;;;20.30;52.00;;;;;;6181196;23;19908;-71
2022/09/10 03:13:27;;;;;;;;;;;20.40;52.00;;;;;;6181003;23;19911;-70
2022/09/10 03:15:54;;;;;;;;;;;20.40;52.00;;;;;;6180638;23;20331;-69
2022/09/10 03:18:24;;;;;;;;;;;20.50;52.00;;;;;;6180832;23;19908;-71
2022/09/10 03:20:50;;;;;;;;;;;20.40;51.50;;;;;;6180828;23;19913;-71
2022/09/10 03:23:17;;;;;;;;;;;20.40;51.30;;;;;;6183006;23;19946;-71
2022/09/10 03:25:45;;;;;;;;;;;20.40;51.10;;;;;;6182867;23;20320;-71
2022/09/10 03:28:12;;;;;;;;;;;20.40;52.30;;;;;;6183325;23;19991;-70
2022/09/10 03:30:39;;;;;;;;;;;20.30;52.60;;;;;;6181457;23;19931;-69
2022/09/10 03:33:06;;;;;;;;;;;20.40;51.50;;;;;;6182290;23;20324;-68
2022/09/10 03:35:33;;;;;;;;;;;20.30;51.90;;;;;;6182811;23;20326;-70
2022/09/10 03:38:01;;;;;;;;;;;20.40;51.30;;;;;;6182627;23;19912;-69
2022/09/10 03:40:28;;;;;;;;;;;20.30;51.50;;;;;;6155949;23;19963;-68
2022/09/10 03:42:55;;;;;;;;;;;20.50;51.70;;;;;;6182184;23;20020;-68
